createdAt,value
2019-05-07T00:00:16.595Z,23.10
2019-05-07T00:02:42.860Z,21.30
2019-05-07T00:05:09.028Z,25.17
2019-05-07T00:07:34.915Z,23.97
2019-05-07T00:10:03.225Z,20.80
2019-05-07T00:12:28.812Z,22.23
2019-05-07T00:15:01.280Z,23.27
2019-05-07T00:17:22.952Z,30.33
2019-05-07T00:19:48.867Z,20.83
2019-05-07T00:22:14.713Z,25.43
2019-05-07T00:24:42.629Z,23.57
2019-05-07T00:27:08.327Z,21.57
2019-05-07T00:29:34.190Z,23.17
2019-05-07T00:32:00.051Z,20.60
2019-05-07T00:34:27.843Z,22.13
2019-05-07T00:37:02.199Z,19.50
2019-05-07T00:39:35.636Z,23.10
2019-05-07T00:42:06.207Z,20.37
2019-05-07T00:44:33.965Z,21.67
2019-05-07T00:47:02.082Z,24.17
2019-05-07T00:49:28.489Z,19.23
2019-05-07T00:51:54.553Z,26.73
2019-05-07T00:54:20.426Z,21.47
2019-05-07T00:56:46.273Z,24.67
2019-05-07T00:59:13.066Z,20.90
2019-05-07T01:01:39.096Z,23.97
2019-05-07T01:04:04.949Z,24.53
2019-05-07T01:06:32.900Z,20.43
2019-05-07T01:08:58.562Z,21.13
2019-05-07T01:11:24.413Z,23.70
2019-05-07T01:13:52.040Z,21.30
2019-05-07T01:16:18.029Z,19.43
2019-05-07T01:18:43.873Z,19.83
2019-05-07T01:21:09.842Z,20.47
2019-05-07T01:23:35.686Z,19.30
2019-05-07T01:26:03.085Z,18.57
2019-05-07T01:28:29.097Z,19.60
2019-05-07T01:30:54.950Z,16.77
2019-05-07T01:33:39.184Z,22.27
2019-05-07T01:36:09.982Z,17.60
2019-05-07T01:38:35.830Z,23.17
2019-05-07T01:41:02.863Z,22.83
2019-05-07T01:43:28.947Z,19.07
2019-05-07T01:45:54.794Z,18.70
2019-05-07T01:48:22.859Z,20.20
2019-05-07T01:50:48.394Z,19.80
2019-05-07T01:53:14.254Z,18.93
2019-05-07T01:55:40.142Z,21.50
2019-05-07T01:58:05.984Z,19.87
2019-05-07T02:00:32.631Z,25.60
2019-05-07T02:03:02.687Z,20.30
2019-05-07T02:05:32.466Z,23.80
2019-05-07T02:07:59.862Z,19.90
2019-05-07T02:10:42.939Z,21.80
2019-05-07T02:13:08.868Z,20.80
2019-05-07T02:15:34.704Z,24.33
2019-05-07T02:18:01.989Z,22.07
2019-05-07T02:20:28.037Z,21.40
2019-05-07T02:22:53.892Z,25.13
2019-05-07T02:25:22.055Z,20.43
2019-05-07T02:27:47.633Z,23.77
2019-05-07T02:30:14.806Z,21.07
2019-05-07T02:32:43.248Z,19.40
2019-05-07T02:35:08.894Z,19.67
2019-05-07T02:37:48.504Z,23.10
2019-05-07T02:40:14.194Z,20.53
2019-05-07T02:42:44.070Z,22.17
2019-05-07T02:45:13.498Z,24.50
2019-05-07T02:47:39.438Z,21.17
2019-05-07T02:50:12.930Z,20.33
2019-05-07T02:52:57.115Z,23.17
2019-05-07T02:55:27.681Z,19.85
2019-05-07T02:57:54.263Z,20.30
2019-05-07T03:00:23.804Z,21.83
2019-05-07T03:02:48.567Z,21.53
2019-05-07T03:05:14.404Z,21.60
2019-05-07T03:07:42.720Z,22.83
2019-05-07T03:10:08.334Z,21.50
2019-05-07T03:12:34.182Z,26.13
2019-05-07T03:15:04.075Z,18.50
2019-05-07T03:17:28.097Z,21.47
2019-05-07T03:19:55.063Z,20.63
2019-05-07T03:22:23.210Z,22.80
2019-05-07T03:24:56.135Z,19.93
2019-05-07T03:27:23.517Z,19.83
2019-05-07T03:29:53.428Z,27.40
2019-05-07T03:32:37.750Z,22.77
2019-05-07T03:35:08.589Z,18.80
2019-05-07T03:37:36.365Z,21.13
2019-05-07T03:40:04.924Z,20.40
2019-05-07T03:42:33.648Z,22.60
2019-05-07T03:45:03.711Z,20.13
2019-05-07T03:47:33.215Z,20.37
2019-05-07T03:49:59.081Z,20.63
2019-05-07T03:52:24.937Z,18.30
2019-05-07T03:54:53.837Z,19.27
2019-05-07T03:57:18.561Z,21.13
2019-05-07T03:59:44.427Z,20.30
2019-05-07T04:02:10.282Z,21.00
2019-05-07T04:04:36.147Z,20.53
2019-05-07T04:07:03.386Z,19.57
2019-05-07T04:09:29.541Z,18.37
2019-05-07T04:11:55.394Z,22.90
2019-05-07T04:14:23.131Z,22.77
2019-05-07T04:16:49.013Z,21.77
2019-05-07T04:19:14.884Z,21.03
2019-05-07T04:21:43.469Z,19.73
2019-05-07T04:24:13.620Z,18.37
2019-05-07T04:26:43.999Z,22.37
2019-05-07T04:29:19.255Z,23.10
2019-05-07T04:31:45.118Z,19.37
2019-05-07T04:34:13.562Z,21.77
2019-05-07T04:36:43.558Z,22.03
2019-05-07T04:39:09.217Z,20.97
2019-05-07T04:41:35.079Z,24.70
2019-05-07T04:44:03.503Z,25.07
2019-05-07T04:46:28.698Z,21.43
2019-05-07T04:48:54.587Z,20.90
2019-05-07T04:51:23.189Z,22.10
2019-05-07T04:53:49.203Z,24.77
2019-05-07T04:56:15.065Z,25.13
2019-05-07T04:58:43.260Z,23.07
2019-05-07T05:01:13.588Z,23.03
2019-05-07T05:03:39.351Z,22.00
2019-05-07T05:06:05.399Z,24.43
2019-05-07T05:08:32.526Z,21.67
2019-05-07T05:10:58.602Z,24.00
2019-05-07T05:13:24.446Z,23.17
2019-05-07T05:15:52.623Z,23.10
2019-05-07T05:18:18.158Z,24.13
2019-05-07T05:20:51.975Z,27.57
2019-05-07T05:23:37.742Z,28.73
2019-05-07T05:26:03.601Z,26.87
2019-05-07T05:28:29.467Z,27.87
2019-05-07T05:30:57.228Z,30.20
2019-05-07T05:33:23.590Z,29.23
2019-05-07T05:35:49.553Z,31.20
2019-05-07T05:38:15.401Z,27.83
2019-05-07T05:40:42.745Z,29.90
2019-05-07T05:43:12.688Z,34.23
2019-05-07T05:45:42.535Z,37.23
2019-05-07T05:48:08.758Z,38.23
2019-05-07T05:50:53.828Z,36.90
2019-05-07T05:53:38.188Z,34.98
2019-05-07T05:56:12.048Z,34.07
2019-05-07T05:58:43.141Z,36.30
2019-05-07T06:01:27.834Z,34.20
2019-05-07T06:03:58.537Z,38.23
2019-05-07T06:06:35.258Z,41.57
2019-05-07T06:09:21.773Z,42.97
2019-05-07T06:12:06.060Z,41.47
2019-05-07T06:14:50.658Z,41.00
2019-05-07T06:17:32.038Z,41.40
2019-05-07T06:20:12.238Z,41.13
2019-05-07T06:22:42.343Z,41.30
2019-05-07T06:25:09.723Z,39.00
2019-05-07T06:27:35.574Z,46.37
2019-05-07T06:30:04.500Z,46.37
2019-05-07T06:32:29.314Z,44.67
2019-05-07T06:34:55.161Z,47.20
2019-05-07T06:37:22.842Z,46.37
2019-05-07T06:40:07.148Z,41.50
2019-05-07T06:42:44.053Z,39.57
2019-05-07T06:45:28.454Z,37.80
2019-05-07T06:47:54.300Z,35.40
2019-05-07T06:50:22.112Z,36.93
2019-05-07T06:52:47.931Z,37.10
2019-05-07T06:55:13.849Z,37.87
2019-05-07T06:57:39.710Z,37.47
2019-05-07T07:00:22.448Z,40.13
2019-05-07T07:02:49.909Z,37.07
2019-05-07T07:05:17.970Z,35.73
2019-05-07T07:07:48.500Z,38.17
2019-05-07T07:10:28.707Z,32.77
2019-05-07T07:12:54.675Z,36.60
2019-05-07T07:15:23.038Z,40.33
2019-05-07T07:17:48.277Z,30.33
2019-05-07T07:20:14.453Z,43.53
2019-05-07T07:22:42.442Z,35.77
2019-05-07T07:25:08.159Z,32.27
2019-05-07T07:27:34.014Z,30.73
2019-05-07T07:30:07.515Z,32.80
2019-05-07T07:32:35.275Z,33.17
2019-05-07T07:35:02.411Z,31.13
2019-05-07T07:37:33.164Z,32.93
2019-05-07T07:40:16.146Z,27.37
2019-05-07T07:42:42.644Z,28.57
2019-05-07T07:45:16.430Z,21.63
2019-05-07T07:47:43.377Z,23.67
2019-05-07T07:50:09.741Z,20.97
2019-05-07T07:52:35.594Z,20.23
2019-05-07T07:55:02.227Z,27.00
2019-05-07T07:57:46.562Z,27.80
2019-05-07T08:00:20.244Z,24.27
2019-05-07T08:02:47.898Z,25.87
2019-05-07T08:05:13.769Z,20.77
2019-05-07T08:07:39.667Z,21.90
2019-05-07T08:10:06.534Z,27.53
2019-05-07T08:12:32.606Z,22.60
2019-05-07T08:15:13.298Z,21.93
2019-05-07T08:17:26.312Z,19.87
2019-05-07T08:19:52.199Z,21.47
2019-05-07T08:22:18.045Z,20.67
2019-05-07T08:24:43.892Z,17.73
2019-05-07T08:27:10.160Z,17.40
2019-05-07T08:29:36.003Z,16.73
2019-05-07T08:32:18.537Z,18.93
2019-05-07T08:34:55.257Z,19.07
2019-05-07T08:37:24.231Z,15.43
2019-05-07T08:39:48.870Z,21.07
2019-05-07T08:42:14.721Z,20.00
2019-05-07T08:44:52.026Z,16.70
2019-05-07T08:47:19.888Z,20.37
2019-05-07T08:49:45.739Z,17.40
2019-05-07T08:52:12.118Z,21.20
2019-05-07T08:57:08.613Z,24.73
2019-05-07T08:59:35.179Z,23.13
2019-05-07T09:02:02.894Z,19.77
2019-05-07T09:04:28.998Z,21.70
2019-05-07T09:06:54.961Z,18.57
2019-05-07T09:09:22.178Z,22.30
2019-05-07T09:11:48.181Z,22.23
2019-05-07T09:14:14.051Z,22.17
2019-05-07T09:16:42.415Z,21.20
2019-05-07T09:19:07.803Z,21.67
2019-05-07T09:21:36.916Z,19.40
2019-05-07T09:24:04.582Z,19.93
2019-05-07T09:26:44.153Z,18.87
2019-05-07T09:29:14.676Z,22.83
2019-05-07T09:31:48.313Z,17.93
2019-05-07T09:34:14.173Z,15.90
2019-05-07T09:36:42.474Z,16.33
2019-05-07T09:39:08.887Z,19.93
2019-05-07T09:41:34.757Z,15.97
2019-05-07T09:44:03.017Z,17.90
2019-05-07T09:46:28.398Z,17.27
2019-05-07T09:48:55.158Z,15.73
2019-05-07T09:51:22.679Z,17.30
2019-05-07T09:53:48.693Z,16.30
2019-05-07T09:56:14.538Z,15.07
2019-05-07T09:58:42.428Z,17.60
2019-05-07T10:01:08.172Z,16.63
2019-05-07T10:03:34.133Z,18.00
2019-05-07T10:06:02.061Z,19.60
2019-05-07T10:08:27.849Z,20.10
2019-05-07T10:10:53.800Z,16.47
2019-05-07T10:13:22.573Z,20.40
2019-05-07T10:15:48.607Z,16.67
2019-05-07T10:18:16.080Z,20.07
2019-05-07T10:20:42.224Z,16.00
2019-05-07T10:23:11.636Z,18.17
2019-05-07T10:25:37.571Z,15.87
2019-05-07T10:28:03.458Z,14.90
2019-05-07T10:30:29.420Z,15.93
2019-05-07T10:32:55.283Z,17.07
2019-05-07T10:35:22.931Z,14.50
2019-05-07T10:37:48.915Z,15.33
2019-05-07T10:40:15.061Z,12.57
2019-05-07T10:42:43.083Z,12.03
2019-05-07T10:45:27.666Z,14.57
2019-05-07T10:48:12.257Z,12.20
2019-05-07T10:50:39.999Z,14.80
2019-05-07T10:53:05.850Z,15.97
2019-05-07T10:55:32.850Z,14.87
2019-05-07T10:57:58.877Z,11.67
2019-05-07T11:00:25.645Z,11.93
2019-05-07T11:02:51.913Z,14.03
2019-05-07T11:05:17.813Z,16.27
2019-05-07T11:07:43.692Z,10.20
2019-05-07T11:10:12.205Z,13.17
2019-05-07T11:12:37.918Z,12.47
2019-05-07T11:15:05.699Z,13.97
2019-05-07T11:17:39.592Z,14.70
2019-05-07T11:20:12.031Z,12.23
2019-05-07T11:22:37.825Z,12.53
2019-05-07T11:25:05.080Z,16.63
2019-05-07T11:27:33.039Z,20.17
2019-05-07T11:29:58.761Z,12.73
2019-05-07T11:32:24.666Z,16.63
2019-05-07T11:34:52.655Z,15.37
2019-05-07T11:37:18.333Z,11.63
2019-05-07T11:39:44.190Z,13.77
2019-05-07T11:42:22.002Z,12.47
2019-05-07T11:44:48.084Z,13.87
2019-05-07T11:47:18.861Z,10.90
2019-05-07T11:50:03.320Z,12.50
2019-05-07T11:52:35.171Z,13.67
2019-05-07T11:54:59.023Z,15.00
2019-05-07T11:57:24.894Z,12.97
2019-05-07T11:59:51.620Z,12.83
2019-05-07T12:02:18.606Z,13.73
2019-05-07T12:04:44.461Z,15.27
2019-05-07T12:07:11.878Z,14.03
2019-05-07T12:09:37.892Z,12.77
2019-05-07T12:12:03.773Z,13.00
2019-05-07T12:14:32.511Z,15.77
2019-05-07T12:16:57.477Z,15.93
2019-05-07T12:19:23.343Z,11.00
2019-05-07T12:21:49.204Z,14.90
2019-05-07T12:24:16.502Z,16.50
2019-05-07T12:26:43.430Z,12.10
2019-05-07T12:29:09.284Z,14.90
2019-05-07T12:31:37.100Z,17.87
2019-05-07T12:34:04.872Z,16.03
2019-05-07T12:36:32.059Z,14.57
2019-05-07T12:38:57.997Z,17.73
2019-05-07T12:41:33.133Z,14.67
2019-05-07T12:44:02.713Z,19.82
2019-05-07T12:46:29.657Z,14.67
2019-05-07T12:48:55.712Z,13.70
2019-05-07T12:51:33.508Z,15.40
2019-05-07T12:54:08.478Z,16.13
2019-05-07T12:56:34.365Z,19.07
2019-05-07T12:59:02.170Z,19.47
2019-05-07T13:01:39.005Z,17.23
2019-05-07T13:04:12.940Z,13.13
2019-05-07T13:06:43.729Z,15.53
2019-05-07T13:09:09.882Z,18.57
2019-05-07T13:11:35.776Z,15.30
2019-05-07T13:14:02.209Z,19.50
2019-05-07T13:16:28.025Z,15.00
2019-05-07T13:18:53.887Z,17.27
2019-05-07T13:21:19.777Z,16.67
2019-05-07T13:23:45.637Z,19.77
2019-05-07T13:26:11.681Z,13.97
2019-05-07T13:28:37.538Z,15.03
2019-05-07T13:31:03.388Z,16.17
2019-05-07T13:33:34.476Z,19.73
2019-05-07T13:36:02.171Z,20.90
2019-05-07T13:38:35.729Z,15.40
2019-05-07T13:41:03.612Z,18.03
2019-05-07T13:43:31.373Z,12.43
2019-05-07T13:46:02.595Z,16.90
2019-05-07T13:48:28.433Z,15.60
2019-05-07T13:50:54.718Z,14.47
2019-05-07T13:53:22.691Z,14.50
2019-05-07T13:55:48.438Z,12.50
2019-05-07T13:58:14.605Z,11.37
2019-05-07T14:00:59.237Z,14.37
2019-05-07T14:03:25.289Z,17.67
2019-05-07T14:05:51.712Z,13.23
2019-05-07T14:08:18.565Z,16.50
2019-05-07T14:10:44.430Z,17.00
2019-05-07T14:13:16.704Z,13.57
2019-05-07T14:15:42.616Z,13.03
2019-05-07T14:18:08.108Z,14.53
2019-05-07T14:20:33.964Z,13.60
2019-05-07T14:22:59.845Z,12.07
2019-05-07T14:25:25.696Z,12.00
2019-05-07T14:27:52.645Z,13.77
2019-05-07T14:30:19.010Z,14.83
2019-05-07T14:32:49.297Z,12.30
2019-05-07T14:35:22.969Z,14.47
2019-05-07T14:37:52.389Z,13.10
2019-05-07T14:40:18.386Z,16.90
2019-05-07T14:42:46.295Z,16.13
2019-05-07T14:45:12.808Z,13.80
2019-05-07T14:47:38.657Z,14.60
2019-05-07T14:50:05.448Z,16.53
2019-05-07T14:52:35.527Z,14.67
2019-05-07T14:54:59.599Z,17.77
2019-05-07T14:57:25.466Z,17.87
2019-05-07T14:59:52.390Z,13.23
2019-05-07T15:02:18.596Z,12.67
2019-05-07T15:04:44.441Z,14.43
2019-05-07T15:07:12.039Z,20.07
2019-05-07T15:09:38.109Z,14.93
2019-05-07T15:12:04.021Z,15.37
2019-05-07T15:14:31.855Z,16.30
2019-05-07T15:17:02.185Z,14.77
2019-05-07T15:19:27.790Z,11.83
2019-05-07T15:21:56.062Z,15.47
2019-05-07T15:24:22.413Z,11.37
2019-05-07T15:26:50.169Z,15.03
2019-05-07T15:29:16.025Z,12.97
2019-05-07T15:31:43.777Z,18.23
2019-05-07T15:34:12.242Z,15.17
2019-05-07T15:36:37.880Z,14.93
2019-05-07T15:39:25.506Z,15.33
2019-05-07T15:41:51.824Z,14.10
2019-05-07T15:44:17.843Z,14.13
2019-05-07T15:46:43.750Z,13.93
2019-05-07T15:49:09.648Z,15.63
2019-05-07T15:51:35.508Z,14.77
2019-05-07T15:54:03.412Z,14.47
2019-05-07T15:56:29.348Z,16.60
2019-05-07T15:58:55.217Z,15.20
2019-05-07T16:01:22.150Z,12.97
2019-05-07T16:03:48.478Z,10.67
2019-05-07T16:06:14.330Z,16.37
2019-05-07T16:08:42.656Z,19.07
2019-05-07T16:11:08.827Z,11.77
2019-05-07T16:13:36.890Z,15.97
2019-05-07T16:16:02.873Z,13.70
2019-05-07T16:18:42.857Z,13.57
2019-05-07T16:21:08.801Z,15.00
2019-05-07T16:23:34.655Z,12.33
2019-05-07T16:26:02.389Z,14.47
2019-05-07T16:28:28.292Z,11.90
2019-05-07T16:30:54.180Z,10.10
2019-05-07T16:33:20.005Z,15.73
2019-05-07T16:35:45.865Z,15.87
2019-05-07T16:38:14.429Z,12.97
2019-05-07T16:40:39.549Z,13.47
2019-05-07T16:43:05.408Z,12.73
2019-05-07T16:45:31.251Z,12.27
2019-05-07T16:47:57.110Z,12.97
2019-05-07T16:50:22.965Z,12.53
2019-05-07T16:52:48.807Z,12.13
2019-05-07T16:55:14.784Z,17.93
2019-05-07T16:57:42.574Z,17.10
2019-05-07T17:00:10.919Z,12.97
2019-05-07T17:02:47.633Z,13.83
2019-05-07T17:05:14.477Z,15.33
2019-05-07T17:08:02.465Z,14.00
2019-05-07T17:10:28.394Z,12.40
2019-05-07T17:12:54.272Z,12.93
2019-05-07T17:15:20.240Z,12.33
2019-05-07T17:17:47.991Z,12.87
2019-05-07T17:20:14.441Z,12.30
2019-05-07T17:22:40.311Z,11.90
2019-05-07T17:25:25.328Z,10.87
2019-05-07T17:27:52.120Z,15.58
2019-05-07T17:30:18.165Z,13.50
2019-05-07T17:32:44.022Z,12.40
2019-05-07T17:35:09.984Z,14.03
2019-05-07T17:37:35.840Z,18.07
2019-05-07T17:40:03.695Z,12.80
2019-05-07T17:42:29.553Z,12.30
2019-05-07T17:44:55.407Z,12.97
2019-05-07T17:47:21.852Z,15.60
2019-05-07T17:49:47.901Z,14.37
2019-05-07T17:52:13.760Z,11.77
2019-05-07T17:54:39.622Z,14.37
2019-05-07T17:57:05.477Z,15.83
2019-05-07T17:59:32.081Z,15.90
2019-05-07T18:02:02.742Z,13.40
2019-05-07T18:04:29.305Z,14.73
2019-05-07T18:06:55.152Z,12.23
2019-05-07T18:09:22.548Z,13.30
2019-05-07T18:11:48.578Z,14.30
2019-05-07T18:14:14.453Z,12.20
2019-05-07T18:16:57.043Z,12.80
2019-05-07T18:19:22.893Z,12.83
2019-05-07T18:21:48.758Z,12.63
2019-05-07T18:24:16.794Z,10.17
2019-05-07T18:26:42.446Z,10.13
2019-05-07T18:29:08.302Z,11.13
2019-05-07T18:31:47.965Z,13.47
2019-05-07T18:34:14.046Z,11.13
2019-05-07T18:36:41.785Z,11.23
2019-05-07T18:39:07.855Z,14.17
2019-05-07T18:41:33.719Z,12.27
2019-05-07T18:44:10.056Z,13.27
2019-05-07T18:46:27.386Z,11.23
2019-05-07T18:48:53.279Z,10.83
2019-05-07T18:51:19.133Z,13.13
2019-05-07T18:53:45.029Z,15.90
2019-05-07T18:56:12.645Z,12.37
2019-05-07T18:58:38.948Z,13.17
2019-05-07T19:01:07.187Z,11.53
2019-05-07T19:03:33.062Z,14.13
2019-05-07T19:05:58.929Z,13.53
2019-05-07T19:08:24.783Z,13.67
2019-05-07T19:10:52.180Z,11.03
2019-05-07T19:13:18.225Z,11.30
2019-05-07T19:15:44.151Z,12.67
2019-05-07T19:18:12.024Z,13.20
2019-05-07T19:20:37.957Z,15.00
2019-05-07T19:23:03.897Z,13.27
2019-05-07T19:25:29.766Z,13.83
2019-05-07T19:27:55.708Z,13.30
2019-05-07T19:30:21.863Z,11.67
2019-05-07T19:32:47.713Z,15.00
2019-05-07T19:35:13.790Z,16.73
2019-05-07T19:37:39.685Z,15.40
2019-05-07T19:40:05.625Z,14.47
2019-05-07T19:42:31.917Z,16.43
2019-05-07T19:44:57.907Z,10.87
2019-05-07T19:47:23.834Z,16.47
2019-05-07T19:49:49.688Z,15.63
2019-05-07T19:52:15.538Z,12.97
2019-05-07T19:54:44.363Z,17.80
2019-05-07T19:57:11.855Z,15.60
2019-05-07T19:59:37.923Z,14.30
2019-05-07T20:02:05.798Z,15.03
2019-05-07T20:04:32.141Z,16.43
2019-05-07T20:06:58.532Z,14.83
2019-05-07T20:09:26.289Z,14.40
2019-05-07T20:11:52.463Z,15.30
2019-05-07T20:14:18.301Z,15.23
2019-05-07T20:16:44.168Z,16.40
2019-05-07T20:19:11.887Z,14.20
2019-05-07T20:21:37.984Z,12.73
2019-05-07T20:24:04.148Z,17.57
2019-05-07T20:26:32.099Z,13.23
2019-05-07T20:28:57.773Z,17.93
2019-05-07T20:31:23.828Z,17.10
2019-05-07T20:33:49.846Z,16.73
2019-05-07T20:36:15.717Z,12.80
2019-05-07T20:38:42.716Z,16.33
2019-05-07T20:41:08.746Z,14.93
2019-05-07T20:43:34.615Z,17.93
2019-05-07T20:46:02.580Z,17.60
2019-05-07T20:48:28.283Z,18.30
2019-05-07T20:50:54.137Z,17.83
2019-05-07T20:53:21.916Z,16.67
2019-05-07T20:55:52.975Z,15.77
2019-05-07T20:58:18.982Z,17.07
2019-05-07T21:00:44.874Z,15.37
2019-05-07T21:03:19.869Z,16.03
2019-05-07T21:05:48.317Z,20.08
2019-05-07T21:08:14.204Z,16.10
2019-05-07T21:10:42.449Z,16.87
2019-05-07T21:13:07.963Z,18.53
2019-05-07T21:15:33.831Z,17.77
2019-05-07T21:17:59.737Z,19.97
2019-05-07T21:20:25.542Z,20.20
2019-05-07T21:22:51.937Z,30.07
2019-05-07T21:25:17.960Z,19.33
2019-05-07T21:27:43.828Z,22.73
2019-05-07T21:30:09.885Z,18.37
2019-05-07T21:32:35.759Z,21.40
2019-05-07T21:35:01.623Z,21.10
2019-05-07T21:37:27.478Z,18.90
2019-05-07T21:39:53.334Z,20.93
2019-05-07T21:42:19.193Z,18.70
2019-05-07T21:44:45.043Z,21.30
2019-05-07T21:47:12.646Z,19.43
2019-05-07T21:49:38.911Z,19.53
2019-05-07T21:52:04.804Z,28.10
2019-05-07T21:54:35.426Z,26.13
2019-05-07T21:57:05.939Z,17.97
2019-05-07T21:59:35.812Z,20.90
2019-05-07T22:02:06.486Z,24.13
2019-05-07T22:04:32.422Z,20.77
2019-05-07T22:06:58.310Z,22.60
2019-05-07T22:09:24.144Z,21.00
2019-05-07T22:11:53.479Z,18.40
2019-05-07T22:14:17.771Z,22.87
2019-05-07T22:16:43.635Z,20.17
2019-05-07T22:19:11.923Z,23.67
2019-05-07T22:21:37.350Z,20.27
2019-05-07T22:24:03.427Z,22.30
2019-05-07T22:26:29.289Z,20.70
2019-05-07T22:28:55.140Z,21.27
2019-05-07T22:31:25.742Z,20.53
2019-05-07T22:34:08.600Z,24.43
2019-05-07T22:36:34.460Z,22.10
2019-05-07T22:39:01.999Z,25.67
2019-05-07T22:41:27.988Z,19.63
2019-05-07T22:43:53.842Z,25.80
2019-05-07T22:46:22.076Z,24.37
2019-05-07T22:48:47.458Z,20.93
2019-05-07T22:51:13.327Z,21.67
2019-05-07T22:53:40.733Z,19.90
2019-05-07T22:56:06.594Z,19.23
2019-05-07T22:58:34.358Z,19.73
2019-05-07T23:01:04.651Z,23.17
2019-05-07T23:03:32.312Z,23.80
2019-05-07T23:06:02.635Z,24.23
2019-05-07T23:08:27.937Z,20.87
2019-05-07T23:10:53.804Z,21.87
2019-05-07T23:13:19.690Z,22.80
2019-05-07T23:15:45.551Z,20.50
2019-05-07T23:18:12.977Z,21.03
2019-05-07T23:20:38.965Z,17.73
2019-05-07T23:23:04.829Z,21.60
2019-05-07T23:25:32.275Z,19.73
2019-05-07T23:27:58.270Z,17.93
2019-05-07T23:30:24.229Z,25.20
2019-05-07T23:32:50.097Z,21.00
2019-05-07T23:35:15.950Z,17.67
2019-05-07T23:37:42.164Z,19.37
2019-05-07T23:40:17.874Z,17.77
2019-05-07T23:42:45.652Z,15.87
2019-05-07T23:45:12.586Z,19.73
2019-05-07T23:47:38.694Z,19.80
2019-05-07T23:50:05.167Z,19.53
2019-05-07T23:52:31.021Z,20.83
2019-05-07T23:54:56.884Z,16.30
2019-05-07T23:57:23.302Z,20.17
2019-05-07T23:59:49.186Z,19.77
